createdAt,value
2023-03-17T00:00:48.765Z,12.10
2023-03-17T00:04:30.799Z,12.00
2023-03-17T00:08:25.618Z,12.00
2023-03-17T00:12:11.720Z,12.00
2023-03-17T00:15:57.205Z,12.00
2023-03-17T00:19:39.480Z,12.00
2023-03-17T00:23:23.154Z,12.00
2023-03-17T00:27:13.516Z,12.10
2023-03-17T00:30:58.212Z,12.00
2023-03-17T00:34:40.620Z,12.10
2023-03-17T00:38:24.453Z,12.00
2023-03-17T00:42:07.154Z,12.00
2023-03-17T00:45:49.416Z,12.10
2023-03-17T00:49:31.366Z,12.10
2023-03-17T00:53:16.691Z,12.00
2023-03-17T00:56:58.541Z,12.10
2023-03-17T01:00:40.360Z,12.00
2023-03-17T01:04:22.665Z,12.10
2023-03-17T01:08:04.693Z,12.10
2023-03-17T01:11:48.808Z,12.10
2023-03-17T01:15:31.757Z,12.10
2023-03-17T01:19:14.523Z,12.10
2023-03-17T01:22:57.132Z,12.10
2023-03-17T01:26:39.161Z,12.10
2023-03-17T01:30:31.334Z,12.10
2023-03-17T01:34:13.348Z,12.10
2023-03-17T01:37:57.292Z,12.00
2023-03-17T01:41:40.007Z,12.10
2023-03-17T01:45:59.746Z,12.10
2023-03-17T01:49:43.002Z,12.10
2023-03-17T01:53:25.464Z,12.10
2023-03-17T01:57:18.890Z,12.10
2023-03-17T02:01:01.634Z,12.10
2023-03-17T02:04:43.455Z,12.10
2023-03-17T02:08:26.353Z,12.10
2023-03-17T02:12:09.789Z,12.00
2023-03-17T02:15:52.251Z,12.10
2023-03-17T02:19:34.240Z,12.00
2023-03-17T02:23:21.072Z,12.10
2023-03-17T02:27:16.028Z,12.10
2023-03-17T02:30:58.012Z,12.00
2023-03-17T02:34:39.884Z,12.10
2023-03-17T02:38:22.308Z,12.10
2023-03-17T02:42:05.455Z,12.10
2023-03-17T02:45:47.243Z,12.00
2023-03-17T02:49:30.519Z,12.00
2023-03-17T02:53:12.221Z,12.00
2023-03-17T02:56:53.992Z,12.00
2023-03-17T03:00:35.929Z,12.00
2023-03-17T03:04:20.053Z,11.90
2023-03-17T03:08:02.218Z,11.90
2023-03-17T03:11:44.543Z,11.90
2023-03-17T03:15:26.261Z,11.90
2023-03-17T03:19:08.045Z,11.90
2023-03-17T03:22:49.770Z,11.90
2023-03-17T03:26:31.846Z,11.90
2023-03-17T03:30:14.646Z,11.90
2023-03-17T03:33:56.412Z,12.00
2023-03-17T03:37:38.100Z,11.90
2023-03-17T03:41:19.840Z,12.00
2023-03-17T03:45:01.682Z,12.00
2023-03-17T03:48:43.407Z,12.00
2023-03-17T03:52:25.275Z,12.00
2023-03-17T03:56:07.312Z,11.90
2023-03-17T03:59:49.098Z,12.00
2023-03-17T04:03:30.946Z,12.00
2023-03-17T04:07:13.334Z,11.90
2023-03-17T04:10:55.092Z,11.90
2023-03-17T04:14:36.933Z,11.90
2023-03-17T04:18:18.711Z,11.90
2023-03-17T04:22:00.745Z,11.80
2023-03-17T04:25:42.444Z,11.70
2023-03-17T04:29:24.197Z,11.70
2023-03-17T04:33:06.078Z,11.60
2023-03-17T04:36:48.497Z,11.50
2023-03-17T04:40:31.590Z,11.40
2023-03-17T04:44:13.856Z,11.30
2023-03-17T04:47:55.763Z,11.20
2023-03-17T04:51:37.483Z,11.10
2023-03-17T04:55:19.350Z,11.10
2023-03-17T04:59:01.112Z,11.00
2023-03-17T05:02:42.937Z,11.00
2023-03-17T05:06:24.675Z,10.90
2023-03-17T05:10:06.965Z,10.90
2023-03-17T05:13:48.725Z,10.80
2023-03-17T05:17:30.668Z,10.80
2023-03-17T05:21:12.704Z,10.70
2023-03-17T05:24:54.476Z,10.70
2023-03-17T05:28:36.627Z,10.70
2023-03-17T05:32:18.468Z,10.70
2023-03-17T05:36:00.267Z,10.70
2023-03-17T05:39:42.149Z,10.70
2023-03-17T05:43:23.935Z,10.70
2023-03-17T05:47:05.844Z,10.60
2023-03-17T05:50:48.241Z,10.60
2023-03-17T05:54:29.932Z,10.70
2023-03-17T05:58:12.758Z,10.70
2023-03-17T06:01:54.616Z,10.70
2023-03-17T06:05:36.763Z,10.70
2023-03-17T06:09:18.482Z,10.70
2023-03-17T06:13:03.675Z,10.80
2023-03-17T06:16:46.190Z,10.80
2023-03-17T06:20:28.103Z,10.80
2023-03-17T06:24:10.100Z,10.80
2023-03-17T06:27:54.728Z,10.80
2023-03-17T06:31:37.426Z,10.80
2023-03-17T06:35:19.313Z,10.90
2023-03-17T06:39:01.140Z,10.80
2023-03-17T06:42:43.110Z,10.80
2023-03-17T06:46:24.899Z,10.80
2023-03-17T06:50:09.722Z,10.80
2023-03-17T06:53:51.890Z,10.80
2023-03-17T06:57:34.180Z,10.80
2023-03-17T07:01:16.716Z,10.90
2023-03-17T07:04:59.106Z,10.90
2023-03-17T07:08:41.545Z,10.90
2023-03-17T07:12:23.305Z,10.90
2023-03-17T07:16:05.758Z,11.00
2023-03-17T07:19:47.555Z,11.00
2023-03-17T07:23:30.413Z,11.00
2023-03-17T07:27:12.167Z,11.00
2023-03-17T07:30:54.030Z,11.10
2023-03-17T07:34:36.507Z,11.20
2023-03-17T07:38:19.880Z,11.40
2023-03-17T07:42:01.801Z,11.50
2023-03-17T07:45:47.060Z,11.60
2023-03-17T07:49:40.716Z,11.70
2023-03-17T07:53:23.632Z,11.70
2023-03-17T07:57:06.429Z,11.80
2023-03-17T08:00:48.619Z,11.90
2023-03-17T08:04:30.687Z,11.90
2023-03-17T08:08:12.770Z,12.00
2023-03-17T08:11:54.519Z,12.00
2023-03-17T08:15:36.735Z,12.00
2023-03-17T08:19:18.452Z,12.10
2023-03-17T08:23:00.857Z,12.20
2023-03-17T08:26:43.361Z,12.30
2023-03-17T08:30:25.165Z,12.40
2023-03-17T08:34:07.793Z,12.50
2023-03-17T08:37:49.733Z,12.50
2023-03-17T08:41:32.017Z,12.60
2023-03-17T08:45:14.927Z,12.60
2023-03-17T08:48:58.009Z,12.60
2023-03-17T08:52:39.777Z,12.60
2023-03-17T08:56:22.652Z,12.60
2023-03-17T09:00:11.137Z,12.70
2023-03-17T09:03:56.081Z,12.80
2023-03-17T09:07:38.321Z,12.80
2023-03-17T09:11:21.088Z,13.00
2023-03-17T09:15:03.359Z,13.00
2023-03-17T09:18:46.836Z,13.10
2023-03-17T09:22:28.570Z,13.10
2023-03-17T09:26:12.261Z,13.10
2023-03-17T09:29:54.035Z,13.20
2023-03-17T09:33:35.853Z,13.20
2023-03-17T09:37:17.846Z,13.40
2023-03-17T09:41:20.534Z,13.60
2023-03-17T09:45:18.462Z,13.80
2023-03-17T09:49:08.648Z,14.00
2023-03-17T09:52:52.253Z,14.30
2023-03-17T09:56:36.522Z,14.40
2023-03-17T10:00:26.724Z,14.50
2023-03-17T10:04:11.017Z,14.40
2023-03-17T10:07:58.702Z,14.30
2023-03-17T10:11:50.549Z,14.10
2023-03-17T10:15:47.548Z,14.00
2023-03-17T10:19:36.896Z,13.90
2023-03-17T10:23:21.939Z,13.90
2023-03-17T10:27:08.138Z,13.90
2023-03-17T10:30:50.108Z,13.90
2023-03-17T10:34:37.400Z,14.00
2023-03-17T10:38:22.160Z,14.10
2023-03-17T10:42:14.084Z,14.20
2023-03-17T10:46:05.038Z,14.30
2023-03-17T10:49:47.362Z,14.40
2023-03-17T10:53:38.065Z,14.50
2023-03-17T10:57:20.723Z,14.60
2023-03-17T11:01:22.762Z,14.70
2023-03-17T11:05:09.482Z,14.80
2023-03-17T11:08:55.884Z,14.90
2023-03-17T11:12:40.964Z,15.00
2023-03-17T11:16:24.708Z,15.00
2023-03-17T11:20:28.945Z,15.00
2023-03-17T11:24:19.579Z,15.00
2023-03-17T11:28:07.989Z,14.90
2023-03-17T11:31:56.204Z,14.90
2023-03-17T11:35:53.086Z,14.90
2023-03-17T11:39:49.913Z,14.90
2023-03-17T11:43:52.983Z,14.90
2023-03-17T11:47:54.427Z,14.90
2023-03-17T11:51:56.659Z,14.90
2023-03-17T11:55:41.508Z,15.00
2023-03-17T11:59:39.744Z,15.10
2023-03-17T12:04:06.160Z,15.20
2023-03-17T12:07:53.320Z,15.20
2023-03-17T12:11:40.381Z,15.30
2023-03-17T12:15:31.726Z,15.30
2023-03-17T12:19:24.549Z,15.30
2023-03-17T12:23:17.611Z,15.40
2023-03-17T12:27:14.546Z,15.40
2023-03-17T12:31:06.870Z,15.40
2023-03-17T12:35:02.484Z,15.40
2023-03-17T12:38:52.450Z,15.40
2023-03-17T12:42:57.242Z,15.40
2023-03-17T12:46:48.126Z,15.40
2023-03-17T12:50:54.881Z,15.40
2023-03-17T12:54:40.599Z,15.50
2023-03-17T12:58:39.573Z,15.50
2023-03-17T13:02:45.625Z,15.60
2023-03-17T13:06:31.271Z,15.70
2023-03-17T13:10:18.878Z,15.80
2023-03-17T13:14:27.438Z,15.70
2023-03-17T13:18:17.784Z,15.80
2023-03-17T13:22:05.718Z,15.90
2023-03-17T13:25:53.864Z,15.90
2023-03-17T13:29:35.746Z,16.00
2023-03-17T13:33:23.756Z,16.00
2023-03-17T13:37:18.902Z,15.90
2023-03-17T13:41:21.775Z,15.90
2023-03-17T13:45:33.956Z,15.90
2023-03-17T13:49:18.708Z,15.90
2023-03-17T13:53:08.662Z,15.90
2023-03-17T13:56:52.896Z,15.90
2023-03-17T14:00:38.815Z,15.90
2023-03-17T14:04:39.669Z,15.90
2023-03-17T14:08:28.625Z,15.80
2023-03-17T14:12:30.585Z,15.90
2023-03-17T14:16:27.824Z,15.90
2023-03-17T14:20:15.617Z,15.80
2023-03-17T14:23:59.490Z,15.80
2023-03-17T14:27:41.687Z,15.80
2023-03-17T14:31:26.869Z,15.70
2023-03-17T14:35:13.708Z,15.80
2023-03-17T14:38:57.022Z,15.80
2023-03-17T14:42:38.816Z,15.70
2023-03-17T14:46:32.436Z,15.70
2023-03-17T14:50:24.413Z,15.70
2023-03-17T14:54:19.961Z,15.60
2023-03-17T14:58:17.525Z,15.60
2023-03-17T15:02:02.756Z,15.60
2023-03-17T15:05:46.333Z,15.70
2023-03-17T15:09:36.767Z,15.70
2023-03-17T15:13:19.089Z,15.60
2023-03-17T15:17:06.601Z,15.60
2023-03-17T15:20:48.358Z,15.50
2023-03-17T15:24:40.020Z,15.50
2023-03-17T15:28:26.492Z,15.50
2023-03-17T15:32:15.899Z,15.60
2023-03-17T15:36:00.015Z,15.60
2023-03-17T15:39:42.194Z,15.70
2023-03-17T15:43:23.965Z,15.70
2023-03-17T15:47:05.782Z,15.60
2023-03-17T15:50:49.097Z,15.60
2023-03-17T15:54:30.861Z,15.60
2023-03-17T15:58:12.847Z,15.60
2023-03-17T16:01:54.978Z,15.60
2023-03-17T16:05:36.797Z,15.50
2023-03-17T16:09:18.584Z,15.50
2023-03-17T16:13:00.392Z,15.50
2023-03-17T16:16:45.654Z,15.40
2023-03-17T16:20:33.815Z,15.40
2023-03-17T16:24:21.768Z,15.30
2023-03-17T16:28:13.897Z,15.30
2023-03-17T16:31:55.950Z,15.20
2023-03-17T16:35:37.755Z,15.20
2023-03-17T16:39:22.581Z,15.10
2023-03-17T16:43:12.950Z,15.10
2023-03-17T16:46:57.562Z,15.10
2023-03-17T16:50:39.497Z,15.10
2023-03-17T16:54:21.189Z,15.10
2023-03-17T16:58:16.958Z,15.10
2023-03-17T17:01:58.847Z,15.00
2023-03-17T17:05:41.605Z,15.00
2023-03-17T17:09:23.501Z,15.00
2023-03-17T17:13:07.818Z,14.90
2023-03-17T17:16:49.594Z,14.90
2023-03-17T17:20:34.510Z,14.80
2023-03-17T17:24:16.237Z,14.70
2023-03-17T17:27:58.656Z,14.60
2023-03-17T17:31:41.168Z,14.60
2023-03-17T17:35:25.899Z,14.60
2023-03-17T17:39:09.642Z,14.50
2023-03-17T17:42:52.462Z,14.40
2023-03-17T17:46:34.317Z,14.40
2023-03-17T17:50:24.063Z,14.30
2023-03-17T17:54:06.275Z,14.20
2023-03-17T17:57:48.067Z,14.20
2023-03-17T18:01:30.016Z,14.20
2023-03-17T18:05:12.777Z,14.10
2023-03-17T18:08:55.301Z,14.00
2023-03-17T18:12:37.991Z,14.00
2023-03-17T18:16:20.186Z,13.90
2023-03-17T18:20:01.998Z,13.90
2023-03-17T18:23:46.845Z,13.80
2023-03-17T18:27:28.525Z,13.70
2023-03-17T18:31:14.391Z,13.70
2023-03-17T18:35:02.699Z,13.60
2023-03-17T18:38:44.616Z,13.60
2023-03-17T18:42:27.241Z,13.60
2023-03-17T18:46:09.008Z,13.50
2023-03-17T18:49:50.747Z,13.50
2023-03-17T18:53:34.590Z,13.40
2023-03-17T18:57:16.778Z,13.40
2023-03-17T19:01:00.775Z,13.40
2023-03-17T19:04:46.066Z,13.40
2023-03-17T19:08:28.922Z,13.40
2023-03-17T19:12:11.018Z,13.40
2023-03-17T19:15:53.318Z,13.40
2023-03-17T19:19:36.677Z,13.40
2023-03-17T19:23:18.491Z,13.30
2023-03-17T19:27:00.618Z,13.30
2023-03-17T19:30:45.638Z,13.30
2023-03-17T19:34:27.941Z,13.30
2023-03-17T19:38:11.239Z,13.30
2023-03-17T19:41:55.185Z,13.20
2023-03-17T19:45:37.113Z,13.20
2023-03-17T19:49:21.081Z,13.20
2023-03-17T19:53:03.193Z,13.20
2023-03-17T19:56:45.001Z,13.20
2023-03-17T20:00:26.804Z,13.20
2023-03-17T20:04:09.821Z,13.10
2023-03-17T20:07:51.878Z,13.10
2023-03-17T20:11:34.126Z,13.10
2023-03-17T20:15:16.609Z,13.10
2023-03-17T20:18:58.334Z,13.00
2023-03-17T20:22:41.358Z,13.00
2023-03-17T20:26:24.478Z,13.00
2023-03-17T20:30:08.437Z,13.00
2023-03-17T20:33:50.484Z,12.90
2023-03-17T20:37:33.073Z,13.00
2023-03-17T20:41:18.246Z,12.90
2023-03-17T20:45:00.148Z,12.90
2023-03-17T20:48:43.190Z,12.80
2023-03-17T20:52:29.494Z,12.80
2023-03-17T20:56:22.365Z,12.70
2023-03-17T21:00:04.712Z,12.60
2023-03-17T21:03:47.104Z,12.60
2023-03-17T21:07:28.844Z,12.60
2023-03-17T21:11:18.431Z,12.60
2023-03-17T21:15:00.705Z,12.60
2023-03-17T21:18:42.404Z,12.70
2023-03-17T21:22:24.552Z,12.60
2023-03-17T21:26:06.587Z,12.70
2023-03-17T21:29:48.424Z,12.70
2023-03-17T21:33:30.194Z,12.70
2023-03-17T21:37:11.934Z,12.70
2023-03-17T21:40:54.644Z,12.70
2023-03-17T21:44:37.191Z,12.60
2023-03-17T21:48:18.981Z,12.60
2023-03-17T21:52:01.226Z,12.60
2023-03-17T21:55:43.990Z,12.60
2023-03-17T21:59:26.122Z,12.60
2023-03-17T22:03:09.043Z,12.60
2023-03-17T22:06:52.122Z,12.60
2023-03-17T22:10:34.265Z,12.50
2023-03-17T22:14:20.061Z,12.50
2023-03-17T22:18:02.120Z,12.50
2023-03-17T22:21:44.001Z,12.50
2023-03-17T22:25:25.745Z,12.50
2023-03-17T22:29:07.612Z,12.50
2023-03-17T22:32:50.166Z,12.50
2023-03-17T22:36:32.509Z,12.50
2023-03-17T22:40:14.785Z,12.40
2023-03-17T22:43:57.428Z,12.40
2023-03-17T22:47:39.183Z,12.40
2023-03-17T22:51:23.363Z,12.40
2023-03-17T22:55:06.948Z,12.40
2023-03-17T22:58:49.379Z,12.30
2023-03-17T23:02:31.306Z,12.30
2023-03-17T23:06:14.738Z,12.30
2023-03-17T23:10:00.135Z,12.30
2023-03-17T23:13:43.577Z,12.30
2023-03-17T23:17:26.742Z,12.30
2023-03-17T23:21:09.105Z,12.30
2023-03-17T23:24:54.011Z,12.30
2023-03-17T23:28:36.304Z,12.30
2023-03-17T23:32:18.135Z,12.30
2023-03-17T23:36:00.724Z,12.30
2023-03-17T23:39:43.289Z,12.20
2023-03-17T23:43:26.314Z,12.20
2023-03-17T23:47:09.959Z,12.20
2023-03-17T23:50:52.871Z,12.30
2023-03-17T23:54:34.660Z,12.30
2023-03-17T23:58:18.438Z,12.20
